createdAt,value
2018-10-16T00:00:30.895Z,13.47
2018-10-16T00:01:30.869Z,13.40
2018-10-16T00:03:24.260Z,13.36
2018-10-16T00:04:24.234Z,13.35
2018-10-16T00:06:17.611Z,13.38
2018-10-16T00:07:17.612Z,13.35
2018-10-16T00:09:10.492Z,13.38
2018-10-16T00:10:10.468Z,13.38
2018-10-16T00:12:03.432Z,13.32
2018-10-16T00:13:03.342Z,13.26
2018-10-16T00:14:56.225Z,13.20
2018-10-16T00:15:56.210Z,13.26
2018-10-16T00:17:49.085Z,13.23
2018-10-16T00:18:49.050Z,13.27
2018-10-16T00:20:42.432Z,13.11
2018-10-16T00:21:42.401Z,13.08
2018-10-16T00:23:35.298Z,13.06
2018-10-16T00:24:35.264Z,13.08
2018-10-16T00:26:28.164Z,13.04
2018-10-16T00:27:28.132Z,13.01
2018-10-16T00:29:21.025Z,13.02
2018-10-16T00:30:20.992Z,13.09
2018-10-16T00:32:13.883Z,13.09
2018-10-16T00:33:13.855Z,13.01
2018-10-16T00:35:06.742Z,12.93
2018-10-16T00:36:06.722Z,12.91
2018-10-16T00:38:00.112Z,12.93
2018-10-16T00:39:00.092Z,12.87
2018-10-16T00:40:53.520Z,12.86
2018-10-16T00:41:52.955Z,12.79
2018-10-16T00:43:45.849Z,12.80
2018-10-16T00:44:45.818Z,12.76
2018-10-16T00:46:38.710Z,12.68
2018-10-16T00:47:38.681Z,12.68
2018-10-16T00:49:31.575Z,12.66
2018-10-16T00:50:31.544Z,12.68
2018-10-16T00:52:24.931Z,12.68
2018-10-16T00:53:24.897Z,12.68
2018-10-16T00:55:18.283Z,12.62
2018-10-16T00:56:18.250Z,12.66
2018-10-16T00:58:11.146Z,12.73
2018-10-16T00:59:11.117Z,12.66
2018-10-16T01:01:04.498Z,12.65
2018-10-16T01:02:04.467Z,12.66
2018-10-16T01:03:57.361Z,12.71
2018-10-16T01:04:57.341Z,12.66
2018-10-16T01:06:50.223Z,12.71
2018-10-16T01:07:50.194Z,12.63
2018-10-16T01:09:43.081Z,12.76
2018-10-16T01:10:43.058Z,12.79
2018-10-16T01:12:35.955Z,12.69
2018-10-16T01:13:35.915Z,12.65
2018-10-16T01:15:28.812Z,12.63
2018-10-16T01:16:28.795Z,12.55
2018-10-16T01:18:22.164Z,12.50
2018-10-16T01:19:22.146Z,12.48
2018-10-16T01:21:15.519Z,12.58
2018-10-16T01:22:15.497Z,12.69
2018-10-16T01:24:08.870Z,12.55
2018-10-16T01:25:08.848Z,12.53
2018-10-16T01:27:01.734Z,12.63
2018-10-16T01:28:01.707Z,12.51
2018-10-16T01:29:54.597Z,12.55
2018-10-16T01:30:54.575Z,12.55
2018-10-16T01:32:47.475Z,12.55
2018-10-16T01:33:47.457Z,12.59
2018-10-16T01:35:40.809Z,12.63
2018-10-16T01:36:40.788Z,12.59
2018-10-16T01:38:34.166Z,12.62
2018-10-16T01:39:34.149Z,12.47
2018-10-16T01:41:27.037Z,12.51
2018-10-16T01:42:27.000Z,12.44
2018-10-16T01:44:20.376Z,12.44
2018-10-16T01:45:20.356Z,12.41
2018-10-16T01:47:13.253Z,12.30
2018-10-16T01:48:13.219Z,12.38
2018-10-16T01:50:06.105Z,12.30
2018-10-16T01:51:06.079Z,12.25
2018-10-16T01:52:58.973Z,12.28
2018-10-16T01:53:58.940Z,12.14
2018-10-16T01:55:51.832Z,12.15
2018-10-16T01:56:51.806Z,12.17
2018-10-16T01:58:44.691Z,12.17
2018-10-16T01:59:44.666Z,12.18
2018-10-16T02:01:38.043Z,12.07
2018-10-16T02:02:38.073Z,12.11
2018-10-16T02:04:30.897Z,12.17
2018-10-16T02:05:30.878Z,12.14
2018-10-16T02:07:23.769Z,12.15
2018-10-16T02:08:23.740Z,12.18
2018-10-16T02:10:16.647Z,12.14
2018-10-16T02:11:16.629Z,12.14
2018-10-16T02:13:09.518Z,12.18
2018-10-16T02:14:09.485Z,12.08
2018-10-16T02:16:02.371Z,12.15
2018-10-16T02:17:02.342Z,12.18
2018-10-16T02:18:55.724Z,12.15
2018-10-16T02:19:55.697Z,12.03
2018-10-16T02:21:48.591Z,12.08
2018-10-16T02:22:48.566Z,12.03
2018-10-16T02:24:41.443Z,12.04
2018-10-16T02:25:41.420Z,12.05
2018-10-16T02:27:34.305Z,12.03
2018-10-16T02:28:34.281Z,12.18
2018-10-16T02:30:27.171Z,12.14
2018-10-16T02:31:27.142Z,12.05
2018-10-16T02:33:20.034Z,12.04
2018-10-16T02:34:20.004Z,12.14
2018-10-16T02:36:12.900Z,12.08
2018-10-16T02:37:12.873Z,12.04
2018-10-16T02:39:05.760Z,12.04
2018-10-16T02:40:05.732Z,12.05
2018-10-16T02:41:58.628Z,12.03
2018-10-16T02:42:58.595Z,12.14
2018-10-16T02:44:51.478Z,12.21
2018-10-16T02:45:51.462Z,12.17
2018-10-16T02:47:44.350Z,12.18
2018-10-16T02:48:44.314Z,12.14
2018-10-16T02:50:37.202Z,12.17
2018-10-16T02:51:37.176Z,12.13
2018-10-16T02:53:30.574Z,12.17
2018-10-16T02:54:30.547Z,12.30
2018-10-16T02:56:23.454Z,12.21
2018-10-16T02:57:23.413Z,12.26
2018-10-16T02:59:16.300Z,12.25
2018-10-16T03:00:16.279Z,12.26
2018-10-16T03:02:09.650Z,12.30
2018-10-16T03:03:09.628Z,12.30
2018-10-16T03:05:02.516Z,12.35
2018-10-16T03:06:02.485Z,12.40
2018-10-16T03:07:55.384Z,12.48
2018-10-16T03:08:55.358Z,12.48
2018-10-16T03:10:48.235Z,12.62
2018-10-16T03:11:48.204Z,12.55
2018-10-16T03:13:41.098Z,12.66
2018-10-16T03:14:41.076Z,12.54
2018-10-16T03:16:34.453Z,12.66
2018-10-16T03:17:34.436Z,12.66
2018-10-16T03:19:27.809Z,12.68
2018-10-16T03:20:27.811Z,12.71
2018-10-16T03:22:21.165Z,12.71
2018-10-16T03:23:21.140Z,12.71
2018-10-16T03:25:14.023Z,12.77
2018-10-16T03:26:14.038Z,12.66
2018-10-16T03:28:07.419Z,12.73
2018-10-16T03:29:07.357Z,12.71
2018-10-16T03:31:00.239Z,12.80
2018-10-16T03:32:00.218Z,12.73
2018-10-16T03:33:53.104Z,12.79
2018-10-16T03:34:53.078Z,12.77
2018-10-16T03:36:46.465Z,12.84
2018-10-16T03:37:46.435Z,12.88
2018-10-16T03:39:39.835Z,12.93
2018-10-16T03:40:39.787Z,12.95
2018-10-16T03:42:32.681Z,13.01
2018-10-16T03:43:32.651Z,12.96
2018-10-16T03:45:25.536Z,13.01
2018-10-16T03:46:25.514Z,12.99
2018-10-16T03:48:18.945Z,12.96
2018-10-16T03:49:18.375Z,12.95
2018-10-16T03:51:11.753Z,13.02
2018-10-16T03:52:11.724Z,13.01
2018-10-16T03:54:05.110Z,13.06
2018-10-16T03:55:05.082Z,13.04
2018-10-16T03:56:57.967Z,13.06
2018-10-16T03:57:57.938Z,13.11
2018-10-16T03:59:51.320Z,13.17
2018-10-16T04:00:51.295Z,13.08
2018-10-16T04:02:44.189Z,13.13
2018-10-16T04:03:44.179Z,13.13
2018-10-16T04:05:37.538Z,13.11
2018-10-16T04:06:37.570Z,13.13
2018-10-16T04:08:30.398Z,13.21
2018-10-16T04:09:30.384Z,13.21
2018-10-16T04:11:23.758Z,13.23
2018-10-16T04:12:23.738Z,13.20
2018-10-16T04:14:16.625Z,13.36
2018-10-16T04:15:16.601Z,13.35
2018-10-16T04:17:09.985Z,13.36
2018-10-16T04:18:09.969Z,13.36
2018-10-16T04:20:03.348Z,13.35
2018-10-16T04:21:03.317Z,13.36
2018-10-16T04:22:56.812Z,13.35
2018-10-16T04:23:56.697Z,13.39
2018-10-16T04:25:49.564Z,13.40
2018-10-16T04:26:49.532Z,13.39
2018-10-16T04:28:42.443Z,13.38
2018-10-16T04:29:42.413Z,13.39
2018-10-16T04:31:35.300Z,13.43
2018-10-16T04:32:35.280Z,13.46
2018-10-16T04:34:28.658Z,13.43
2018-10-16T04:35:28.635Z,13.47
2018-10-16T04:37:22.011Z,13.49
2018-10-16T04:38:21.985Z,13.54
2018-10-16T04:40:14.891Z,13.45
2018-10-16T04:41:14.849Z,13.47
2018-10-16T04:43:08.234Z,13.49
2018-10-16T04:44:08.206Z,13.45
2018-10-16T04:46:01.110Z,13.54
2018-10-16T04:47:01.072Z,13.45
2018-10-16T04:48:54.468Z,13.51
2018-10-16T04:49:54.430Z,13.47
2018-10-16T04:51:47.321Z,13.51
2018-10-16T04:52:47.298Z,13.55
2018-10-16T04:54:40.179Z,13.47
2018-10-16T04:55:40.158Z,13.55
2018-10-16T04:57:33.054Z,13.54
2018-10-16T04:58:33.025Z,13.55
2018-10-16T05:00:25.911Z,13.54
2018-10-16T05:01:25.886Z,13.58
2018-10-16T05:03:18.772Z,13.54
2018-10-16T05:04:18.846Z,13.55
2018-10-16T05:06:11.706Z,13.51
2018-10-16T05:07:11.615Z,13.53
2018-10-16T05:09:04.992Z,13.55
2018-10-16T05:10:04.969Z,13.57
2018-10-16T05:11:57.852Z,13.55
2018-10-16T05:12:57.853Z,13.54
2018-10-16T05:14:50.725Z,13.60
2018-10-16T05:15:50.694Z,13.54
2018-10-16T05:17:44.109Z,13.58
2018-10-16T05:18:44.042Z,13.63
2018-10-16T05:20:36.936Z,13.65
2018-10-16T05:21:36.910Z,13.67
2018-10-16T05:23:29.878Z,13.68
2018-10-16T05:24:29.772Z,13.67
2018-10-16T05:26:23.181Z,13.64
2018-10-16T05:27:23.131Z,13.73
2018-10-16T05:29:17.052Z,13.71
2018-10-16T05:30:16.019Z,13.68
2018-10-16T05:32:08.889Z,13.75
2018-10-16T05:33:08.859Z,13.71
2018-10-16T05:35:02.251Z,13.67
2018-10-16T05:36:02.219Z,13.63
2018-10-16T05:37:55.122Z,13.58
2018-10-16T05:38:55.089Z,13.63
2018-10-16T05:40:47.983Z,13.67
2018-10-16T05:41:47.953Z,13.75
2018-10-16T05:43:41.339Z,13.67
2018-10-16T05:44:41.319Z,13.72
2018-10-16T05:46:34.194Z,13.75
2018-10-16T05:47:34.174Z,13.75
2018-10-16T05:49:27.556Z,13.71
2018-10-16T05:50:27.526Z,13.79
2018-10-16T05:52:20.417Z,13.73
2018-10-16T05:53:20.427Z,13.72
2018-10-16T05:55:13.282Z,13.72
2018-10-16T05:56:13.250Z,13.72
2018-10-16T05:58:06.159Z,13.73
2018-10-16T05:59:06.118Z,13.67
2018-10-16T06:00:59.502Z,13.79
2018-10-16T06:01:59.474Z,13.72
2018-10-16T06:03:52.891Z,13.82
2018-10-16T06:04:52.853Z,13.72
2018-10-16T06:06:45.760Z,13.73
2018-10-16T06:07:45.748Z,13.71
2018-10-16T06:09:39.115Z,13.75
2018-10-16T06:10:39.159Z,13.75
2018-10-16T06:12:31.992Z,13.83
2018-10-16T06:13:31.965Z,13.79
2018-10-16T06:15:24.849Z,13.75
2018-10-16T06:16:24.830Z,13.78
2018-10-16T06:18:18.206Z,13.85
2018-10-16T06:19:18.181Z,13.85
2018-10-16T06:21:11.072Z,13.83
2018-10-16T06:22:11.055Z,13.91
2018-10-16T06:24:04.429Z,13.80
2018-10-16T06:25:04.401Z,13.83
2018-10-16T06:26:57.315Z,13.94
2018-10-16T06:27:57.267Z,13.91
2018-10-16T06:29:50.161Z,13.96
2018-10-16T06:30:50.133Z,13.97
2018-10-16T06:32:43.520Z,14.00
2018-10-16T06:33:43.501Z,14.03
2018-10-16T06:35:36.888Z,14.05
2018-10-16T06:36:36.860Z,14.08
2018-10-16T06:38:30.239Z,14.13
2018-10-16T06:39:30.227Z,14.16
2018-10-16T06:41:23.254Z,14.09
2018-10-16T06:42:23.089Z,14.30
2018-10-16T06:44:15.988Z,14.22
2018-10-16T06:45:16.021Z,14.33
2018-10-16T06:47:08.881Z,14.31
2018-10-16T06:48:08.938Z,14.37
2018-10-16T06:50:01.735Z,14.51
2018-10-16T06:51:01.705Z,14.55
2018-10-16T06:52:54.586Z,14.55
2018-10-16T06:53:55.135Z,14.58
2018-10-16T06:55:47.460Z,14.56
2018-10-16T06:56:47.426Z,14.64
2018-10-16T06:58:40.810Z,14.71
2018-10-16T06:59:40.789Z,14.86
2018-10-16T07:01:33.680Z,14.97
2018-10-16T07:02:33.649Z,15.01
2018-10-16T07:04:26.543Z,15.08
2018-10-16T07:05:26.513Z,15.25
2018-10-16T07:07:20.088Z,15.38
2018-10-16T07:08:19.388Z,15.47
2018-10-16T07:10:12.768Z,15.60
2018-10-16T07:11:12.747Z,15.65
2018-10-16T07:13:05.634Z,15.69
2018-10-16T07:14:05.608Z,15.69
2018-10-16T07:15:58.989Z,15.85
2018-10-16T07:16:58.964Z,15.84
2018-10-16T07:18:51.862Z,15.99
2018-10-16T07:19:51.846Z,16.02
2018-10-16T07:21:44.798Z,15.99
2018-10-16T07:22:44.700Z,16.00
2018-10-16T07:24:37.605Z,16.00
2018-10-16T07:25:37.563Z,15.95
2018-10-16T07:27:30.534Z,16.03
2018-10-16T07:28:30.442Z,16.03
2018-10-16T07:30:23.326Z,16.16
2018-10-16T07:31:23.306Z,16.24
2018-10-16T07:33:16.208Z,16.21
2018-10-16T07:34:16.183Z,16.29
2018-10-16T07:36:09.077Z,16.36
2018-10-16T07:37:09.063Z,16.34
2018-10-16T07:39:02.096Z,16.32
2018-10-16T07:40:01.938Z,16.43
2018-10-16T07:41:54.834Z,16.57
2018-10-16T07:42:54.803Z,16.59
2018-10-16T07:44:47.712Z,16.57
2018-10-16T07:45:47.675Z,16.64
2018-10-16T07:47:40.581Z,16.70
2018-10-16T07:48:40.591Z,16.65
2018-10-16T07:50:33.947Z,16.76
2018-10-16T07:51:33.915Z,16.67
2018-10-16T07:53:26.814Z,16.77
2018-10-16T07:54:26.788Z,16.70
2018-10-16T07:56:20.173Z,16.77
2018-10-16T07:57:20.184Z,16.77
2018-10-16T07:59:13.533Z,16.73
2018-10-16T08:00:13.509Z,16.76
2018-10-16T08:02:06.900Z,16.83
2018-10-16T08:03:06.879Z,16.79
2018-10-16T08:05:00.296Z,16.84
2018-10-16T08:06:00.264Z,16.88
2018-10-16T08:07:53.160Z,16.91
2018-10-16T08:08:53.136Z,16.84
2018-10-16T08:10:46.035Z,16.99
2018-10-16T08:11:45.999Z,16.88
2018-10-16T08:13:38.906Z,16.97
2018-10-16T08:14:38.895Z,16.97
2018-10-16T08:16:32.271Z,16.98
2018-10-16T08:17:32.253Z,17.10
2018-10-16T08:19:25.145Z,17.07
2018-10-16T08:20:25.125Z,17.02
2018-10-16T08:22:18.021Z,17.20
2018-10-16T08:23:17.988Z,17.24
2018-10-16T08:25:10.893Z,17.31
2018-10-16T08:26:10.867Z,17.30
2018-10-16T08:28:04.250Z,17.35
2018-10-16T08:29:04.229Z,17.34
2018-10-16T08:30:57.127Z,17.32
2018-10-16T08:31:57.096Z,17.31
2018-10-16T08:33:49.989Z,17.38
2018-10-16T08:34:49.973Z,17.35
2018-10-16T08:36:43.441Z,17.43
2018-10-16T08:37:43.335Z,17.43
2018-10-16T08:39:36.230Z,17.47
2018-10-16T08:40:36.211Z,17.52
2018-10-16T08:42:29.121Z,17.68
2018-10-16T08:43:29.084Z,17.63
2018-10-16T08:45:22.475Z,17.63
2018-10-16T08:46:22.453Z,17.65
2018-10-16T08:48:15.845Z,17.79
2018-10-16T08:49:15.824Z,17.81
2018-10-16T08:51:08.720Z,17.84
2018-10-16T08:52:08.697Z,17.91
2018-10-16T08:54:02.107Z,17.99
2018-10-16T08:55:02.147Z,17.99
2018-10-16T08:56:55.446Z,18.03
2018-10-16T08:57:55.424Z,18.02
2018-10-16T08:59:48.318Z,18.11
2018-10-16T09:00:48.305Z,18.08
2018-10-16T09:02:41.219Z,18.20
2018-10-16T09:03:41.196Z,18.13
2018-10-16T09:05:34.589Z,18.36
2018-10-16T09:06:34.591Z,18.30
2018-10-16T09:08:27.958Z,18.41
2018-10-16T09:09:27.940Z,18.42
2018-10-16T09:11:21.320Z,18.42
2018-10-16T09:12:21.300Z,18.49
2018-10-16T09:14:14.224Z,18.57
2018-10-16T09:15:14.198Z,18.61
2018-10-16T09:17:07.573Z,18.67
2018-10-16T09:18:07.551Z,18.67
2018-10-16T09:20:00.935Z,18.67
2018-10-16T09:21:00.922Z,18.81
2018-10-16T09:22:53.817Z,18.85
2018-10-16T09:23:53.793Z,18.96
2018-10-16T09:25:46.704Z,19.07
2018-10-16T09:26:46.664Z,19.04
2018-10-16T09:28:40.134Z,19.07
2018-10-16T09:29:40.065Z,19.22
2018-10-16T09:31:33.458Z,19.22
2018-10-16T09:32:33.426Z,19.27
2018-10-16T09:34:26.827Z,19.31
2018-10-16T09:35:26.786Z,19.39
2018-10-16T09:37:20.191Z,19.49
2018-10-16T09:38:20.157Z,19.37
2018-10-16T09:40:13.056Z,19.38
2018-10-16T09:41:13.030Z,19.45
2018-10-16T09:43:06.421Z,19.47
2018-10-16T09:44:06.396Z,19.57
2018-10-16T09:45:59.304Z,19.60
2018-10-16T09:46:59.270Z,19.57
2018-10-16T09:48:52.166Z,19.67
2018-10-16T09:49:52.153Z,19.60
2018-10-16T09:51:45.537Z,19.77
2018-10-16T09:52:45.524Z,19.78
2018-10-16T09:54:38.418Z,19.86
2018-10-16T09:55:38.395Z,19.93
2018-10-16T09:57:31.310Z,19.94
2018-10-16T09:58:31.272Z,20.00
2018-10-16T10:00:24.262Z,20.00
2018-10-16T10:01:24.241Z,19.99
2018-10-16T10:03:17.140Z,20.07
2018-10-16T10:04:17.111Z,20.08
2018-10-16T10:06:10.029Z,20.19
2018-10-16T10:07:09.992Z,20.23
2018-10-16T10:09:02.882Z,20.33
2018-10-16T10:10:02.869Z,20.27
2018-10-16T10:11:56.265Z,20.32
2018-10-16T10:12:56.235Z,20.42
2018-10-16T10:14:49.632Z,20.46
2018-10-16T10:15:49.605Z,20.46
2018-10-16T10:17:43.014Z,20.56
2018-10-16T10:18:42.986Z,20.61
2018-10-16T10:20:35.891Z,20.64
2018-10-16T10:21:35.865Z,20.60
2018-10-16T10:23:29.400Z,20.63
2018-10-16T10:24:29.263Z,20.75
2018-10-16T10:26:22.160Z,20.63
2018-10-16T10:27:22.144Z,20.74
2018-10-16T10:29:15.043Z,20.79
2018-10-16T10:30:15.020Z,20.74
2018-10-16T10:32:08.025Z,20.85
2018-10-16T10:33:08.007Z,20.83
2018-10-16T10:35:00.951Z,20.93
2018-10-16T10:36:00.893Z,20.93
2018-10-16T10:37:53.786Z,20.95
2018-10-16T10:38:53.763Z,20.95
2018-10-16T10:40:47.237Z,21.07
2018-10-16T10:41:46.644Z,21.08
2018-10-16T10:43:40.029Z,21.11
2018-10-16T10:44:40.011Z,21.26
2018-10-16T10:46:33.406Z,21.25
2018-10-16T10:47:33.385Z,21.29
2018-10-16T10:49:26.792Z,21.30
2018-10-16T10:50:26.905Z,21.41
2018-10-16T10:52:19.673Z,21.47
2018-10-16T10:53:19.645Z,21.48
2018-10-16T10:55:13.103Z,21.47
2018-10-16T10:56:12.536Z,21.45
2018-10-16T10:58:06.489Z,21.53
2018-10-16T10:59:06.467Z,21.51
2018-10-16T11:00:59.462Z,21.53
2018-10-16T11:01:59.463Z,21.59
2018-10-16T11:03:52.833Z,21.59
2018-10-16T11:04:52.819Z,21.59
2018-10-16T11:06:46.213Z,21.66
2018-10-16T11:07:46.196Z,21.66
2018-10-16T11:09:39.606Z,21.74
2018-10-16T11:10:39.574Z,21.81
2018-10-16T11:12:32.467Z,21.85
2018-10-16T11:13:32.454Z,21.94
2018-10-16T11:15:25.842Z,21.98
2018-10-16T11:16:25.831Z,21.96
2018-10-16T11:18:18.723Z,22.03
2018-10-16T11:19:18.736Z,22.03
2018-10-16T11:21:12.203Z,22.04
2018-10-16T11:22:12.076Z,22.04
2018-10-16T11:24:04.976Z,22.15
2018-10-16T11:25:04.956Z,22.25
2018-10-16T11:26:58.942Z,22.27
2018-10-16T11:27:58.332Z,22.31
2018-10-16T11:29:51.247Z,22.37
2018-10-16T11:30:51.215Z,22.36
2018-10-16T11:32:44.611Z,22.34
2018-10-16T11:33:44.588Z,22.37
2018-10-16T11:35:37.493Z,22.38
2018-10-16T11:36:37.473Z,22.38
2018-10-16T11:38:30.374Z,22.48
2018-10-16T11:39:30.362Z,22.43
2018-10-16T11:41:23.747Z,22.51
2018-10-16T11:42:23.730Z,22.58
2018-10-16T11:44:16.632Z,22.59
2018-10-16T11:45:16.641Z,22.68
2018-10-16T11:47:10.008Z,22.83
2018-10-16T11:48:09.995Z,22.83
2018-10-16T11:50:03.488Z,22.88
2018-10-16T11:51:03.375Z,22.92
2018-10-16T11:52:56.293Z,23.01
2018-10-16T11:53:56.269Z,22.96
2018-10-16T11:55:49.150Z,23.03
2018-10-16T11:56:49.131Z,22.96
2018-10-16T11:58:42.049Z,23.08
2018-10-16T11:59:42.024Z,23.08
2018-10-16T12:01:34.932Z,23.11
2018-10-16T12:02:34.956Z,23.17
2018-10-16T12:04:28.308Z,23.34
2018-10-16T12:05:28.290Z,23.39
2018-10-16T12:07:21.197Z,23.28
2018-10-16T12:08:21.180Z,23.18
2018-10-16T12:10:14.078Z,23.25
2018-10-16T12:11:14.113Z,23.26
2018-10-16T12:13:06.981Z,23.34
2018-10-16T12:14:06.995Z,23.37
2018-10-16T12:15:59.851Z,23.39
2018-10-16T12:16:59.848Z,23.39
2018-10-16T12:18:52.751Z,23.45
2018-10-16T12:19:52.778Z,23.48
2018-10-16T12:21:45.624Z,23.56
2018-10-16T12:22:45.627Z,23.45
2018-10-16T12:24:38.509Z,23.48
2018-10-16T12:25:38.495Z,23.48
2018-10-16T12:27:31.903Z,23.45
2018-10-16T12:28:31.942Z,23.52
2018-10-16T12:30:24.770Z,23.55
2018-10-16T12:31:24.765Z,23.51
2018-10-16T12:33:18.176Z,23.49
2018-10-16T12:34:18.135Z,23.54
2018-10-16T12:36:11.035Z,23.70
2018-10-16T12:37:11.094Z,23.71
2018-10-16T12:39:04.508Z,23.82
2018-10-16T12:40:04.433Z,23.82
2018-10-16T12:41:57.346Z,23.91
2018-10-16T12:42:57.420Z,23.76
2018-10-16T12:44:50.223Z,23.82
2018-10-16T12:45:50.196Z,23.86
2018-10-16T12:47:43.596Z,23.81
2018-10-16T12:48:43.573Z,23.85
2018-10-16T12:50:36.480Z,23.92
2018-10-16T12:51:36.459Z,23.79
2018-10-16T12:53:29.918Z,23.82
2018-10-16T12:54:29.831Z,23.86
2018-10-16T12:56:22.742Z,23.89
2018-10-16T12:57:22.797Z,23.88
2018-10-16T12:59:16.687Z,23.76
2018-10-16T13:00:16.187Z,23.85
2018-10-16T13:02:09.064Z,23.81
2018-10-16T13:03:09.038Z,23.88
2018-10-16T13:05:01.919Z,23.81
2018-10-16T13:06:01.883Z,23.86
2018-10-16T13:07:55.285Z,23.82
2018-10-16T13:08:55.279Z,23.84
2018-10-16T13:10:48.162Z,23.79
2018-10-16T13:11:48.135Z,23.85
2018-10-16T13:13:41.046Z,23.84
2018-10-16T13:14:41.026Z,23.84
2018-10-16T13:16:34.042Z,23.86
2018-10-16T13:17:34.032Z,23.82
2018-10-16T13:19:27.427Z,23.86
2018-10-16T13:20:27.404Z,23.85
2018-10-16T13:22:20.873Z,23.78
2018-10-16T13:23:20.304Z,23.79
2018-10-16T13:25:13.194Z,23.76
2018-10-16T13:26:13.238Z,23.86
2018-10-16T13:28:06.129Z,23.82
2018-10-16T13:29:06.131Z,24.03
2018-10-16T13:30:58.959Z,24.21
2018-10-16T13:31:58.952Z,24.16
2018-10-16T13:33:51.843Z,24.10
2018-10-16T13:34:51.863Z,24.10
2018-10-16T13:36:45.269Z,24.04
2018-10-16T13:37:45.196Z,24.01
2018-10-16T13:39:38.142Z,24.04
2018-10-16T13:40:38.125Z,23.96
2018-10-16T13:42:31.101Z,24.04
2018-10-16T13:43:31.007Z,24.00
2018-10-16T13:45:24.424Z,23.97
2018-10-16T13:46:24.399Z,23.92
2018-10-16T13:48:17.807Z,23.98
2018-10-16T13:49:17.786Z,24.03
2018-10-16T13:51:11.177Z,24.00
2018-10-16T13:52:11.191Z,24.00
2018-10-16T13:54:04.064Z,23.96
2018-10-16T13:55:04.047Z,23.85
2018-10-16T13:56:57.517Z,23.98
2018-10-16T13:57:57.457Z,23.86
2018-10-16T13:59:50.829Z,23.84
2018-10-16T14:00:50.804Z,23.85
2018-10-16T14:02:44.207Z,24.01
2018-10-16T14:03:44.180Z,24.07
2018-10-16T14:05:37.652Z,23.92
2018-10-16T14:06:37.568Z,23.92
2018-10-16T14:08:30.964Z,23.98
2018-10-16T14:09:30.936Z,24.03
2018-10-16T14:11:23.858Z,23.94
2018-10-16T14:12:23.833Z,23.92
2018-10-16T14:14:17.285Z,23.92
2018-10-16T14:15:17.203Z,23.86
2018-10-16T14:17:10.114Z,23.89
2018-10-16T14:18:10.089Z,23.84
2018-10-16T14:20:02.998Z,23.85
2018-10-16T14:21:02.969Z,23.81
2018-10-16T14:22:55.905Z,23.78
2018-10-16T14:23:55.886Z,23.67
2018-10-16T14:25:48.795Z,23.71
2018-10-16T14:26:48.777Z,23.76
2018-10-16T14:28:42.170Z,23.64
2018-10-16T14:29:42.174Z,23.60
2018-10-16T14:31:35.052Z,23.49
2018-10-16T14:32:35.039Z,23.52
2018-10-16T14:34:28.594Z,23.61
2018-10-16T14:35:27.920Z,23.49
2018-10-16T14:37:20.823Z,23.46
2018-10-16T14:38:20.808Z,23.51
2018-10-16T14:40:14.376Z,23.45
2018-10-16T14:41:14.180Z,23.41
2018-10-16T14:43:07.597Z,23.26
2018-10-16T14:44:07.626Z,23.23
2018-10-16T14:46:00.522Z,23.13
2018-10-16T14:47:00.440Z,23.07
2018-10-16T14:48:53.343Z,22.99
2018-10-16T14:49:53.331Z,23.06
2018-10-16T14:51:46.718Z,22.93
2018-10-16T14:52:46.697Z,22.85
2018-10-16T14:54:40.091Z,22.81
2018-10-16T14:55:40.073Z,22.74
2018-10-16T14:57:33.540Z,22.73
2018-10-16T14:58:33.445Z,22.74
2018-10-16T15:00:26.848Z,22.55
2018-10-16T15:01:26.821Z,22.56
2018-10-16T15:03:19.723Z,22.41
2018-10-16T15:04:19.704Z,22.37
2018-10-16T15:06:13.092Z,22.28
2018-10-16T15:07:13.075Z,22.28
2018-10-16T15:09:05.981Z,22.16
2018-10-16T15:10:06.065Z,22.12
2018-10-16T15:11:58.866Z,22.04
2018-10-16T15:12:58.841Z,22.01
2018-10-16T15:14:51.743Z,22.03
2018-10-16T15:15:51.736Z,22.00
2018-10-16T15:17:44.620Z,21.91
2018-10-16T15:18:44.604Z,21.85
2018-10-16T15:20:37.640Z,21.80
2018-10-16T15:21:37.488Z,21.71
2018-10-16T15:23:30.954Z,21.66
2018-10-16T15:24:30.859Z,21.60
2018-10-16T15:26:23.758Z,21.50
2018-10-16T15:27:23.746Z,21.40
2018-10-16T15:29:16.640Z,21.41
2018-10-16T15:30:16.617Z,21.29
2018-10-16T15:32:10.065Z,21.25
2018-10-16T15:33:09.993Z,21.25
2018-10-16T15:35:03.385Z,21.29
2018-10-16T15:36:03.398Z,21.26
2018-10-16T15:37:56.313Z,21.20
2018-10-16T15:38:56.242Z,21.14
2018-10-16T15:40:49.149Z,21.04
2018-10-16T15:41:49.128Z,21.07
2018-10-16T15:43:42.074Z,21.05
2018-10-16T15:44:42.009Z,21.01
2018-10-16T15:46:34.916Z,21.03
2018-10-16T15:47:34.885Z,20.98
2018-10-16T15:49:27.782Z,21.08
2018-10-16T15:50:27.765Z,21.05
2018-10-16T15:52:20.663Z,21.08
2018-10-16T15:53:20.636Z,21.03
2018-10-16T15:55:13.531Z,20.97
2018-10-16T15:56:13.518Z,21.01
2018-10-16T15:58:06.528Z,20.97
2018-10-16T15:59:06.396Z,20.95
2018-10-16T16:00:59.297Z,20.93
2018-10-16T16:01:59.292Z,20.88
2018-10-16T16:03:52.695Z,20.86
2018-10-16T16:04:52.657Z,20.82
2018-10-16T16:06:45.661Z,20.75
2018-10-16T16:07:45.638Z,20.73
2018-10-16T16:09:38.561Z,20.75
2018-10-16T16:10:38.529Z,20.63
2018-10-16T16:12:31.457Z,20.58
2018-10-16T16:13:31.400Z,20.55
2018-10-16T16:15:24.795Z,20.48
2018-10-16T16:16:24.775Z,20.53
2018-10-16T16:18:18.271Z,20.39
2018-10-16T16:19:18.158Z,20.46
2018-10-16T16:21:11.560Z,20.29
2018-10-16T16:22:11.576Z,20.27
2018-10-16T16:24:04.429Z,20.29
2018-10-16T16:25:04.396Z,20.19
2018-10-16T16:26:57.805Z,20.15
2018-10-16T16:27:57.832Z,20.17
2018-10-16T16:29:51.212Z,20.12
2018-10-16T16:30:51.148Z,20.05
2018-10-16T16:32:44.056Z,19.93
2018-10-16T16:33:44.032Z,19.89
2018-10-16T16:35:36.938Z,19.82
2018-10-16T16:36:36.962Z,19.74
2018-10-16T16:38:29.808Z,19.72
2018-10-16T16:39:29.797Z,19.71
2018-10-16T16:41:23.229Z,19.62
2018-10-16T16:42:23.166Z,19.56
2018-10-16T16:44:16.686Z,19.49
2018-10-16T16:45:16.532Z,19.44
2018-10-16T16:47:09.548Z,19.39
2018-10-16T16:48:09.402Z,19.44
2018-10-16T16:50:02.852Z,19.30
2018-10-16T16:51:02.782Z,19.30
2018-10-16T16:52:56.187Z,19.24
2018-10-16T16:53:56.135Z,19.07
2018-10-16T16:55:49.554Z,19.04
2018-10-16T16:56:49.517Z,19.13
2018-10-16T16:58:42.420Z,18.94
2018-10-16T16:59:42.398Z,18.91
2018-10-16T17:01:35.810Z,18.82
2018-10-16T17:02:35.777Z,18.83
2018-10-16T17:04:28.686Z,18.70
2018-10-16T17:05:28.653Z,18.71
2018-10-16T17:07:21.556Z,18.71
2018-10-16T17:08:21.521Z,18.63
2018-10-16T17:10:14.497Z,18.56
2018-10-16T17:11:14.395Z,18.63
2018-10-16T17:13:07.787Z,18.63
2018-10-16T17:14:07.776Z,18.60
2018-10-16T17:16:00.704Z,18.56
2018-10-16T17:17:00.643Z,18.52
2018-10-16T17:18:53.537Z,18.51
2018-10-16T17:19:53.531Z,18.39
2018-10-16T17:21:46.906Z,18.49
2018-10-16T17:22:46.880Z,18.39
2018-10-16T17:24:39.861Z,18.39
2018-10-16T17:25:40.218Z,18.36
2018-10-16T17:27:33.158Z,18.28
2018-10-16T17:28:33.139Z,18.27
2018-10-16T17:30:26.035Z,18.30
2018-10-16T17:31:26.011Z,18.24
2018-10-16T17:33:18.911Z,18.13
2018-10-16T17:34:18.889Z,18.12
2018-10-16T17:36:11.795Z,18.13
2018-10-16T17:37:11.762Z,18.11
2018-10-16T17:39:04.668Z,18.11
2018-10-16T17:40:04.634Z,18.08
2018-10-16T17:41:57.532Z,17.99
2018-10-16T17:42:57.511Z,18.09
2018-10-16T17:44:50.921Z,18.03
2018-10-16T17:45:50.871Z,18.01
2018-10-16T17:47:44.339Z,17.93
2018-10-16T17:48:44.237Z,17.94
2018-10-16T17:50:37.631Z,17.88
2018-10-16T17:51:37.610Z,17.91
2018-10-16T17:53:31.043Z,17.90
2018-10-16T17:54:30.985Z,17.90
2018-10-16T17:56:24.381Z,17.84
2018-10-16T17:57:24.364Z,17.84
2018-10-16T17:59:17.259Z,17.81
2018-10-16T18:00:17.229Z,17.87
2018-10-16T18:02:10.628Z,17.68
2018-10-16T18:03:10.649Z,17.72
2018-10-16T18:05:03.510Z,17.75
2018-10-16T18:06:03.474Z,17.63
2018-10-16T18:07:56.371Z,17.59
2018-10-16T18:08:56.405Z,17.66
2018-10-16T18:10:49.745Z,17.71
2018-10-16T18:11:49.774Z,17.66
2018-10-16T18:13:43.112Z,17.65
2018-10-16T18:14:43.105Z,17.62
2018-10-16T18:16:37.537Z,17.68
2018-10-16T18:17:37.511Z,17.71
2018-10-16T18:19:30.929Z,17.72
2018-10-16T18:20:30.889Z,17.69
2018-10-16T18:22:23.784Z,17.90
2018-10-16T18:23:23.764Z,17.84
2018-10-16T18:25:16.649Z,17.87
2018-10-16T18:26:16.629Z,17.81
2018-10-16T18:28:10.578Z,17.84
2018-10-16T18:29:10.555Z,17.81
2018-10-16T18:31:03.458Z,17.79
2018-10-16T18:32:03.433Z,17.78
2018-10-16T18:33:56.331Z,17.81